Time;durP1;ratioP1;P1;durP2;ratioP2;P2;SDS_P1;SDS_P2;PMS_P1;PMS_P2;Temp;Humidity;BMP_temperature;BMP_pressure;BME280_temperature;BME280_humidity;BME280_pressure;Samples;Min_cycle;Max_cycle;Signal;HPM_P1;HPM_P2
2023/07/20 00:04:07;;;;;;;6.87;2.58;;;;;;;25.37;51.70;99094.19;7634004;32;37995;-79
2023/07/20 00:08:24;;;;;;;8.90;2.83;;;;;;;25.37;51.68;99079.41;7636151;32;39409;-80
2023/07/20 00:12:40;;;;;;;9.02;2.80;;;;;;;25.31;51.71;99076.19;7660217;32;40047;-80
2023/07/20 00:16:57;;;;;;;7.80;2.75;;;;;;;25.08;52.37;99079.22;7660009;32;38631;-80
2023/07/20 00:21:13;;;;;;;11.50;3.30;;;;;;;25.06;52.39;99078.78;7659929;32;37872;-80
2023/07/20 00:25:29;;;;;;;6.78;2.78;;;;;;;25.04;52.49;99065.25;7660189;32;38945;-79
2023/07/20 00:29:46;;;;;;;7.85;2.78;;;;;;;24.96;52.69;99068.34;7659700;32;40035;-79
2023/07/20 00:34:03;;;;;;;6.12;2.85;;;;;;;24.97;52.49;99056.00;7659878;32;37832;-79
2023/07/20 00:38:20;;;;;;;6.97;2.53;;;;;;;24.85;52.83;99054.31;7659856;32;37005;-79
2023/07/20 00:42:36;;;;;;;8.15;3.25;;;;;;;24.85;52.62;99048.75;7659637;32;39318;-79
2023/07/20 00:46:53;;;;;;;7.35;2.75;;;;;;;24.73;52.88;99031.16;7659647;32;40891;-80
2023/07/20 00:51:10;;;;;;;5.28;3.03;;;;;;;24.71;53.04;99025.16;7658268;32;37842;-80
2023/07/20 00:55:26;;;;;;;8.40;2.83;;;;;;;24.65;53.17;99025.91;7659726;32;37026;-79
2023/07/20 00:59:43;;;;;;;10.05;2.80;;;;;;;24.56;53.49;99031.81;7659161;32;40311;-79
2023/07/20 01:03:59;;;;;;;11.52;2.87;;;;;;;24.59;53.43;99031.03;7659455;32;39717;-79
2023/07/20 01:08:24;;;;;;;7.53;2.78;;;;;;;24.58;53.44;99035.00;7658215;32;38045;-80
2023/07/20 01:12:47;;;;;;;8.00;2.42;;;;;;;24.58;53.44;99046.16;7659146;32;37798;-81
2023/07/20 01:17:04;;;;;;;10.65;3.03;;;;;;;24.55;53.48;99046.91;7658910;32;40080;-79
2023/07/20 01:21:37;;;;;;;9.30;2.90;;;;;;;24.45;53.85;99039.22;7658909;32;39926;-78
2023/07/20 01:26:12;;;;;;;5.47;2.75;;;;;;;24.50;53.73;99028.53;7658126;32;37696;-78
2023/07/20 01:30:31;;;;;;;11.50;3.10;;;;;;;24.37;54.23;99036.38;7659229;32;37253;-79
2023/07/20 01:34:49;;;;;;;8.13;3.30;;;;;;;24.31;54.50;99037.09;7659357;32;39418;-79
2023/07/20 01:39:06;;;;;;;8.68;3.15;;;;;;;24.08;54.94;99040.06;7657643;32;39941;-79
2023/07/20 01:43:22;;;;;;;10.75;3.05;;;;;;;24.10;54.56;99048.84;7657384;32;38346;-79
2023/07/20 01:47:39;;;;;;;11.93;2.60;;;;;;;24.07;54.49;99055.16;7659001;32;37859;-80
2023/07/20 01:51:55;;;;;;;5.72;2.70;;;;;;;24.02;53.82;99052.72;7659061;32;40055;-80
2023/07/20 01:56:12;;;;;;;6.50;2.65;;;;;;;23.91;53.77;99053.38;7658788;32;39620;-79
2023/07/20 02:00:28;;;;;;;5.55;2.58;;;;;;;23.98;53.04;99058.25;7658787;32;37981;-79
2023/07/20 02:04:45;;;;;;;8.77;3.20;;;;;;;23.92;52.82;99055.00;7658387;32;37853;-79
2023/07/20 02:09:01;;;;;;;6.97;2.75;;;;;;;24.03;52.45;99065.47;7658586;32;39407;-80
2023/07/20 02:13:17;;;;;;;9.10;3.08;;;;;;;23.94;52.52;99074.91;7658870;32;40614;-79
2023/07/20 02:17:34;;;;;;;7.37;2.67;;;;;;;23.88;52.86;99081.97;7658694;32;38666;-79
2023/07/20 02:21:50;;;;;;;9.70;3.28;;;;;;;23.92;52.75;99088.41;7657728;32;37215;-79
2023/07/20 02:26:06;;;;;;;5.20;2.80;;;;;;;23.83;53.32;99084.28;7658683;32;39659;-79
2023/07/20 02:30:23;;;;;;;9.40;2.65;;;;;;;23.85;53.40;99096.63;7658262;32;40025;-79
2023/07/20 02:34:39;;;;;;;8.40;3.35;;;;;;;23.77;54.02;99103.28;7658527;32;37577;-79
2023/07/20 02:38:56;;;;;;;10.38;3.08;;;;;;;23.74;54.34;99117.94;7658487;32;37162;-79
2023/07/20 02:43:12;;;;;;;9.18;3.00;;;;;;;23.74;54.42;99123.50;7658367;32;39295;-80
2023/07/20 02:47:29;;;;;;;6.20;2.58;;;;;;;23.84;54.29;99131.22;7658485;32;40866;-79
2023/07/20 02:51:46;;;;;;;7.80;3.05;;;;;;;23.67;54.57;99140.91;7657776;32;38757;-80
2023/07/20 02:56:02;;;;;;;9.60;3.47;;;;;;;23.71;54.34;99136.19;7658206;32;37217;-79
2023/07/20 03:00:19;;;;;;;6.60;2.83;;;;;;;23.40;55.21;99140.09;7657725;32;40162;-80
2023/07/20 03:04:36;;;;;;;8.73;3.15;;;;;;;23.48;55.03;99138.25;7658026;32;41153;-79
2023/07/20 03:08:53;;;;;;;5.85;2.90;;;;;;;23.51;54.87;99141.09;7658023;32;37966;-79
2023/07/20 03:13:10;;;;;;;11.52;2.97;;;;;;;23.51;54.91;99146.66;7657848;32;37827;-78
2023/07/20 03:17:26;;;;;;;10.10;3.22;;;;;;;23.35;55.46;99148.75;7657787;32;39389;-78
2023/07/20 03:21:43;;;;;;;5.15;2.75;;;;;;;23.33;55.17;99140.78;7657820;32;40854;-79
2023/07/20 03:26:00;;;;;;;7.18;3.42;;;;;;;23.21;55.45;99150.13;7657664;32;37885;-79
2023/07/20 03:30:16;;;;;;;12.00;4.40;;;;;;;23.18;55.48;99148.13;7657673;32;36966;-78
2023/07/20 03:34:33;;;;;;;8.00;3.08;;;;;;;23.25;55.30;99156.56;7657293;32;39520;-78
2023/07/20 03:38:50;;;;;;;8.38;3.50;;;;;;;23.34;55.18;99152.75;7657296;32;40521;-78
2023/07/20 03:43:06;;;;;;;5.53;2.83;;;;;;;23.25;55.34;99159.34;7657252;32;37933;-79
2023/07/20 03:47:24;;;;;;;6.57;3.00;;;;;;;23.05;55.92;99160.56;7657395;32;37095;-79
2023/07/20 03:51:40;;;;;;;7.12;2.83;;;;;;;23.24;55.24;99163.31;7656031;32;40088;-78
2023/07/20 03:55:57;;;;;;;11.32;3.58;;;;;;;22.82;56.68;99166.12;7657021;32;40834;-79
2023/07/20 04:00:14;;;;;;;10.02;3.28;;;;;;;23.01;56.17;99157.75;7656450;32;35933;-79
2023/07/20 04:04:31;;;;;;;9.63;3.20;;;;;;;23.18;55.52;99153.69;7656987;32;37131;-80
2023/07/20 04:08:47;;;;;;;8.82;3.05;;;;;;;23.04;56.30;99145.06;7656835;32;39490;-79
2023/07/20 04:13:04;;;;;;;10.95;3.58;;;;;;;23.09;56.10;99158.69;7656647;32;40556;-80
2023/07/20 04:17:21;;;;;;;8.48;3.22;;;;;;;22.97;55.98;99156.84;7656399;32;38623;-80
2023/07/20 04:21:41;;;;;;;10.20;3.17;;;;;;;23.11;55.48;99156.34;7655918;32;38152;-80
2023/07/20 04:25:58;;;;;;;10.02;3.50;;;;;;;23.01;55.65;99156.94;7655794;32;40122;-80
2023/07/20 04:30:17;;;;;;;7.80;3.35;;;;;;;22.78;56.34;99151.38;7656259;32;41101;-80
2023/07/20 04:34:37;;;;;;;9.70;3.40;;;;;;;22.90;55.95;99144.81;7656150;32;37874;-80
2023/07/20 04:38:53;;;;;;;6.30;3.20;;;;;;;23.09;55.37;99144.78;7656079;32;37112;-80
2023/07/20 04:43:09;;;;;;;8.07;3.22;;;;;;;23.14;55.10;99143.66;7655978;32;39072;-80
2023/07/20 04:47:26;;;;;;;9.30;3.10;;;;;;;23.05;56.08;99157.78;7658499;32;40038;-79
2023/07/20 04:51:42;;;;;;;6.70;3.40;;;;;;;23.20;55.62;99170.78;7659628;32;37818;-79
2023/07/20 04:55:59;;;;;;;8.00;3.50;;;;;;;23.07;53.59;99177.72;7659771;32;37170;-80
2023/07/20 05:00:16;;;;;;;9.52;3.70;;;;;;;23.05;53.19;99169.75;7659493;32;39417;-80
2023/07/20 05:04:33;;;;;;;10.95;4.82;;;;;;;22.56;54.27;99175.16;7659474;32;40842;-83
2023/07/20 05:08:54;;;;;;;12.25;6.05;;;;;;;22.82;53.70;99169.72;7659378;32;38041;-82
2023/07/20 05:13:10;;;;;;;10.35;5.00;;;;;;;22.78;54.15;99165.25;7658335;32;37807;-81
2023/07/20 05:17:27;;;;;;;11.05;5.47;;;;;;;22.63;54.29;99159.44;7659555;32;39431;-72
2023/07/20 05:21:43;;;;;;;9.55;3.40;;;;;;;23.00;53.71;99172.00;7659366;32;40855;-71
2023/07/20 05:26:00;;;;;;;7.10;2.90;;;;;;;23.12;53.61;99180.19;7659266;32;39022;-73
2023/07/20 05:30:16;;;;;;;7.37;3.55;;;;;;;23.12;53.11;99185.75;7658974;32;37767;-74
2023/07/20 05:34:33;;;;;;;12.35;5.10;;;;;;;22.87;53.65;99180.53;7649609;32;39992;-73
2023/07/20 05:38:49;;;;;;;16.00;3.75;;;;;;;22.93;53.82;99183.00;7653928;32;40251;-71
2023/07/20 05:43:05;;;;;;;9.07;3.97;;;;;;;23.12;52.61;99185.75;7652256;32;37608;-75
2023/07/20 05:47:22;;;;;;;8.77;3.40;;;;;;;22.97;53.50;99190.22;7659128;32;37343;-73
2023/07/20 05:51:38;;;;;;;11.12;4.72;;;;;;;23.36;52.36;99172.63;7658192;32;39976;-81
2023/07/20 05:55:55;;;;;;;8.63;3.45;;;;;;;23.44;52.65;99179.91;7658270;32;39920;-80
2023/07/20 06:00:12;;;;;;;9.45;3.67;;;;;;;23.58;51.74;99185.69;7653468;32;37580;-79
2023/07/20 06:04:30;;;;;;;8.68;3.70;;;;;;;23.68;51.01;99183.44;7658784;32;37046;-81
2023/07/20 06:08:46;;;;;;;11.68;3.45;;;;;;;23.88;50.41;99182.16;7658768;32;39267;-82
2023/07/20 06:13:03;;;;;;;7.97;4.05;;;;;;;23.68;51.86;99189.81;7658271;32;40908;-83
2023/07/20 06:17:19;;;;;;;9.82;3.47;;;;;;;24.04;51.31;99189.53;7658462;32;39053;-81
2023/07/20 06:21:39;;;;;;;7.30;3.97;;;;;;;23.81;51.29;99188.44;7658562;32;36933;-81
2023/07/20 06:25:55;;;;;;;9.07;3.45;;;;;;;24.07;50.61;99199.94;7658417;32;40045;-81
2023/07/20 06:30:15;;;;;;;8.95;3.70;;;;;;;24.00;50.38;99198.63;7658538;32;39705;-81
2023/07/20 06:34:36;;;;;;;7.55;3.58;;;;;;;24.46;49.75;99199.63;7658234;32;37576;-81
2023/07/20 06:38:53;;;;;;;12.88;3.78;;;;;;;24.42;50.35;99209.91;7658218;32;37020;-82
2023/07/20 06:43:12;;;;;;;8.70;3.35;;;;;;;23.77;50.91;99209.03;7658376;32;39616;-81
2023/07/20 06:47:31;;;;;;;15.07;4.07;;;;;;;23.99;49.92;99218.50;7658241;32;39356;-82
2023/07/20 06:51:47;;;;;;;7.90;3.83;;;;;;;24.10;49.80;99213.91;7650062;32;38665;-82
2023/07/20 06:56:04;;;;;;;8.60;3.87;;;;;;;24.57;48.67;99206.16;7634861;32;37010;-82
2023/07/20 07:00:20;;;;;;;6.85;3.50;;;;;;;24.55;48.63;99214.09;7646633;32;39972;-78
2023/07/20 07:04:37;;;;;;;6.53;3.50;;;;;;;24.97;47.35;99220.50;7631648;32;39993;-77
2023/07/20 07:08:53;;;;;;;7.62;3.58;;;;;;;25.16;47.60;99213.91;7631162;32;38002;-83
2023/07/20 07:13:11;;;;;;;5.65;3.20;;;;;;;25.19;46.13;99224.31;7635275;32;37132;-82
2023/07/20 07:17:28;;;;;;;4.65;2.90;;;;;;;25.36;45.74;99218.13;7637630;32;39591;-82
2023/07/20 07:21:45;;;;;;;6.53;3.25;;;;;;;25.79;42.69;99215.63;7642410;32;39971;-82
2023/07/20 07:26:03;;;;;;;12.52;3.03;;;;;;;25.57;42.96;99211.91;7642595;32;37526;-82
2023/07/20 07:30:20;;;;;;;4.72;2.83;;;;;;;26.04;41.64;99217.81;7650222;32;37198;-82
2023/07/20 07:34:38;;;;;;;6.25;3.12;;;;;;;25.99;41.83;99213.41;7651363;32;39893;-82
2023/07/20 07:38:55;;;;;;;8.75;2.83;;;;;;;26.14;41.51;99219.84;7651568;32;40745;-83
2023/07/20 07:43:15;;;;;;;8.82;2.95;;;;;;;26.48;38.54;99219.62;7650664;32;37358;-83
2023/07/20 07:47:34;;;;;;;6.07;2.50;;;;;;;26.44;38.60;99207.66;7650932;32;36805;-82
2023/07/20 07:51:50;;;;;;;7.07;2.12;;;;;;;26.67;39.73;99212.12;7651623;32;40095;-83
2023/07/20 07:56:10;;;;;;;3.75;2.35;;;;;;;27.38;34.99;99208.66;7655979;32;39906;-84
2023/07/20 08:00:26;;;;;;;5.37;2.20;;;;;;;27.89;34.30;99209.41;7657057;32;37951;-84
2023/07/20 08:04:43;;;;;;;5.30;2.28;;;;;;;27.97;33.40;99211.00;7654617;32;37903;-84
2023/07/20 08:08:59;;;;;;;8.60;2.40;;;;;;;27.81;33.12;99219.81;7646293;32;39288;-83
2023/07/20 08:13:16;;;;;;;5.95;2.30;;;;;;;27.79;33.69;99221.44;7642540;32;39977;-82
2023/07/20 08:17:32;;;;;;;5.00;2.08;;;;;;;28.07;33.78;99224.19;7630332;32;38086;-83
2023/07/20 08:21:49;;;;;;;6.78;2.53;;;;;;;28.07;34.07;99221.38;7637274;32;37096;-81
2023/07/20 08:26:05;;;;;;;9.10;2.47;;;;;;;28.20;34.56;99215.34;7659983;32;40257;-79
2023/07/20 08:30:23;;;;;;;6.40;2.20;;;;;;;28.35;34.06;99225.28;7659431;32;40093;-84
2023/07/20 08:34:40;;;;;;;5.43;2.50;;;;;;;27.99;34.39;99222.59;7659510;32;39448;-80
2023/07/20 08:38:56;;;;;;;7.55;2.80;;;;;;;27.88;35.44;99235.81;7659883;32;37348;-84
2023/07/20 08:43:16;;;;;;;6.28;2.67;;;;;;;28.22;34.59;99229.78;7659815;32;40196;-85
2023/07/20 08:47:33;;;;;;;4.72;2.20;;;;;;;27.77;34.88;99238.63;7658600;32;40717;-85
2023/07/20 08:51:51;;;;;;;6.50;2.25;;;;;;;27.32;36.24;99227.84;7659556;32;37857;-86
2023/07/20 08:56:10;;;;;;;5.07;2.50;;;;;;;26.91;35.68;99227.38;7656764;32;37842;-79
2023/07/20 09:00:29;;;;;;;7.45;2.60;;;;;;;27.17;35.97;99235.41;7633521;32;39195;-86
2023/07/20 09:04:45;;;;;;;4.47;2.47;;;;;;;26.76;37.21;99246.09;7635090;32;40063;-84
2023/07/20 09:09:02;;;;;;;6.75;2.60;;;;;;;26.63;36.99;99242.88;7633249;32;37676;-84
2023/07/20 09:13:19;;;;;;;5.03;2.35;;;;;;;26.76;36.60;99251.69;7633241;32;37114;-85
2023/07/20 09:17:40;;;;;;;9.07;2.37;;;;;;;27.00;36.74;99243.78;7631968;32;39307;-86
2023/07/20 09:21:56;;;;;;;3.70;2.22;;;;;;;27.05;36.71;99248.97;7655444;32;39661;-85
2023/07/20 09:26:15;;;;;;;4.80;2.00;;;;;;;27.28;35.67;99249.41;7657637;32;38633;-85
2023/07/20 09:30:31;;;;;;;5.32;1.90;;;;;;;27.28;34.58;99226.25;7656815;32;37624;-86
2023/07/20 09:34:51;;;;;;;7.07;2.20;;;;;;;27.84;34.48;99233.03;7658059;32;40029;-85
2023/07/20 09:39:08;;;;;;;3.25;1.95;;;;;;;28.21;33.28;99222.56;7658280;32;39599;-85
2023/07/20 09:43:25;;;;;;;4.95;2.10;;;;;;;28.00;33.42;99210.22;7658896;32;37955;-85
2023/07/20 09:47:42;;;;;;;6.00;2.28;;;;;;;28.34;32.66;99218.13;7658912;32;36775;-85
2023/07/20 09:52:00;;;;;;;5.47;2.33;;;;;;;28.69;31.21;99219.19;7658997;32;39313;-86
2023/07/20 09:56:21;;;;;;;9.68;2.28;;;;;;;29.16;31.88;99219.69;7658650;32;39916;-86
2023/07/20 10:00:38;;;;;;;14.68;3.20;;;;;;;29.44;29.73;99211.47;7657670;32;37953;-86
2023/07/20 10:05:01;;;;;;;6.62;2.28;;;;;;;29.11;30.78;99213.72;7658471;32;37277;-86
2023/07/20 10:09:18;;;;;;;6.95;2.03;;;;;;;29.24;31.03;99222.47;7657900;32;38989;-87
2023/07/20 10:13:40;;;;;;;4.15;2.10;;;;;;;29.49;30.84;99227.88;7656923;32;39838;-86
2023/07/20 10:18:17;;;;;;;4.45;1.65;;;;;;;28.43;31.90;99235.28;7658595;32;38740;-85
2023/07/20 10:22:36;;;;;;;6.60;2.00;;;;;;;28.43;31.21;99224.06;7658752;32;37595;-86
2023/07/20 10:26:58;;;;;;;7.00;2.10;;;;;;;28.69;32.58;99221.19;7653534;32;40097;-84
2023/07/20 10:31:17;;;;;;;2.90;1.85;;;;;;;28.64;30.20;99214.78;7641575;32;40837;-83
2023/07/20 10:35:54;;;;;;;4.45;1.70;;;;;;;28.78;29.91;99213.91;7639282;32;38559;-84
2023/07/20 10:40:31;;;;;;;5.50;1.92;;;;;;;28.93;28.57;99233.47;7640195;32;37114;-83
2023/07/20 10:44:47;;;;;;;7.22;2.00;;;;;;;29.28;29.22;99220.44;7641858;32;40231;-83
2023/07/20 10:49:06;;;;;;;3.85;1.80;;;;;;;29.81;28.52;99224.81;7642843;32;40137;-83
2023/07/20 10:53:24;;;;;;;6.82;1.85;;;;;;;29.97;26.92;99213.00;7643631;32;37584;-81
2023/07/20 10:57:40;;;;;;;10.98;2.35;;;;;;;30.93;26.66;99204.62;7640235;32;37054;-82
2023/07/20 11:02:01;;;;;;;5.00;1.85;;;;;;;31.34;25.95;99205.56;7648109;32;40075;-84
2023/07/20 11:06:26;;;;;;;6.05;1.90;;;;;;;31.61;25.01;99199.91;7656208;32;40102;-83
2023/07/20 11:10:42;;;;;;;18.98;2.37;;;;;;;31.35;25.66;99207.19;7657809;32;38645;-83
2023/07/20 11:14:59;;;;;;;3.15;1.60;;;;;;;31.84;25.70;99204.75;7658024;32;37256;-83
2023/07/20 11:19:20;;;;;;;4.43;1.80;;;;;;;31.69;25.07;99223.13;7657796;32;40029;-83
2023/07/20 11:23:40;;;;;;;3.17;1.52;;;;;;;31.75;25.62;99208.13;7657806;32;40413;-83
2023/07/20 11:27:58;;;;;;;4.05;1.62;;;;;;;31.77;24.18;99199.22;7657503;32;37886;-83
2023/07/20 11:32:22;;;;;;;6.65;1.90;;;;;;;31.84;24.58;99201.94;7656541;32;36210;-83
2023/07/20 11:36:42;;;;;;;4.10;1.90;;;;;;;32.06;24.89;99198.72;7657423;32;40262;-84
2023/07/20 11:41:04;;;;;;;3.33;1.67;;;;;;;32.28;24.03;99199.88;7631236;32;40205;-84
2023/07/20 11:45:20;;;;;;;9.05;2.20;;;;;;;32.42;24.43;99195.16;7629866;32;38767;-84
2023/07/20 11:49:38;;;;;;;3.70;1.92;;;;;;;32.90;23.88;99199.38;7630991;32;37827;-83
2023/07/20 11:53:55;;;;;;;5.10;1.92;;;;;;;32.19;24.56;99214.53;7631345;32;40086;-83
2023/07/20 11:58:11;;;;;;;9.40;1.75;;;;;;;31.23;25.89;99220.62;7639057;32;39826;-82
2023/07/20 12:02:28;;;;;;;7.68;1.75;;;;;;;31.10;26.78;99219.62;7649441;32;37114;-83
2023/07/20 12:06:46;;;;;;;9.10;1.83;;;;;;;31.79;24.11;99225.75;7652304;32;37046;-83
2023/07/20 12:11:03;;;;;;;4.68;1.98;;;;;;;32.24;23.75;99220.94;7643884;32;40055;-83
2023/07/20 12:15:26;;;;;;;9.48;2.20;;;;;;;32.33;22.98;99219.09;7652371;32;39817;-83
2023/07/20 12:19:43;;;;;;;9.02;1.83;;;;;;;31.94;23.68;99217.03;7651434;32;38070;-83
2023/07/20 12:23:59;;;;;;;5.85;2.00;;;;;;;32.56;22.64;99212.59;7656997;32;37121;-84
2023/07/20 12:28:19;;;;;;;4.45;1.62;;;;;;;32.29;22.54;99207.09;7653783;32;39889;-83
2023/07/20 12:32:35;;;;;;;6.75;1.80;;;;;;;32.32;22.94;99211.06;7656841;32;41385;-83
2023/07/20 12:36:52;;;;;;;3.33;1.70;;;;;;;32.37;23.59;99208.56;7651580;32;37675;-84
2023/07/20 12:41:13;;;;;;;2.85;1.50;;;;;;;32.93;22.47;99193.63;7650336;32;37814;-82
2023/07/20 12:45:30;;;;;;;12.65;2.62;;;;;;;32.76;21.17;99200.50;7653453;32;37984;-83
2023/07/20 12:49:47;;;;;;;4.47;1.65;;;;;;;32.97;21.52;99195.59;7643025;32;40783;-82
2023/07/20 12:54:03;;;;;;;8.40;1.20;;;;;;;33.23;20.80;99205.06;7648811;32;38742;-82
2023/07/20 12:58:20;;;;;;;3.37;1.50;;;;;;;33.21;20.76;99205.50;7647040;32;37762;-83
2023/07/20 13:02:39;;;;;;;8.68;2.00;;;;;;;33.21;20.24;99208.31;7649517;32;39301;-82
2023/07/20 13:06:55;;;;;;;2.37;1.50;;;;;;;33.20;20.54;99197.47;7649876;32;39929;-82
2023/07/20 13:11:11;;;;;;;4.75;1.50;;;;;;;32.65;23.21;99188.62;7651526;32;37736;-83
2023/07/20 13:15:44;;;;;;;4.10;1.33;;;;;;;33.02;19.21;99183.78;7654841;32;36832;-82
2023/07/20 13:20:01;;;;;;;2.08;1.55;;;;;;;32.52;20.41;99197.75;7659273;32;40071;-83
2023/07/20 13:24:17;;;;;;;3.83;1.50;;;;;;;33.23;20.21;99199.41;7658391;32;40106;-82
2023/07/20 13:28:34;;;;;;;2.50;1.50;;;;;;;33.25;20.04;99186.44;7658832;32;38006;-82
2023/07/20 13:32:50;;;;;;;4.00;1.60;;;;;;;33.53;19.87;99172.84;7655450;32;37192;-82
2023/07/20 13:37:06;;;;;;;2.15;1.40;;;;;;;33.72;20.16;99181.66;7645957;32;39903;-82
2023/07/20 13:41:23;;;;;;;4.25;1.50;;;;;;;33.91;20.24;99180.72;7655386;32;39934;-81
2023/07/20 13:45:40;;;;;;;3.85;1.45;;;;;;;34.18;20.12;99183.16;7658148;32;38535;-82
2023/07/20 13:49:59;;;;;;;4.90;1.62;;;;;;;34.19;19.56;99181.97;7652236;32;37259;-82
2023/07/20 13:54:41;;;;;;;4.15;1.62;;;;;;;33.39;20.52;99182.47;7654471;32;39072;-82
2023/07/20 13:59:00;;;;;;;4.47;1.80;;;;;;;33.64;20.69;99178.97;7634602;32;277471;-82
2023/07/20 14:03:17;;;;;;;9.20;1.92;;;;;;;33.73;20.96;99181.19;7646613;32;37938;-82
2023/07/20 14:07:36;;;;;;;1.92;1.45;;;;;;;34.05;20.49;99171.06;7658147;32;39259;-82
2023/07/20 14:11:52;;;;;;;5.45;1.50;;;;;;;33.89;21.04;99177.53;7658029;32;39571;-82
2023/07/20 14:16:12;;;;;;;4.00;1.70;;;;;;;34.24;20.34;99166.50;7657470;32;39485;-82
2023/07/20 14:20:29;;;;;;;2.70;1.60;;;;;;;33.95;20.26;99181.41;7657076;32;38262;-82
2023/07/20 14:24:45;;;;;;;6.50;1.62;;;;;;;32.89;21.65;99170.34;7656956;32;37230;-82
2023/07/20 14:29:02;;;;;;;6.03;1.40;;;;;;;32.75;22.48;99177.13;7658367;32;39166;-81
2023/07/20 14:33:18;;;;;;;10.68;1.58;;;;;;;32.07;23.31;99178.53;7656397;32;40029;-82
2023/07/20 14:37:35;;;;;;;1.75;1.40;;;;;;;32.47;23.41;99181.34;7657100;32;38585;-82
2023/07/20 14:41:52;;;;;;;3.95;1.62;;;;;;;32.47;22.68;99184.16;7631505;32;37506;-82
2023/07/20 14:46:09;;;;;;;4.30;1.73;;;;;;;32.07;23.14;99187.00;7631257;32;40892;-82
2023/07/20 14:50:26;;;;;;;3.70;1.62;;;;;;;31.47;25.05;99184.03;7657288;32;40501;-82
2023/07/20 14:54:42;;;;;;;3.83;1.70;;;;;;;31.66;24.08;99190.19;7656660;32;37979;-82
2023/07/20 14:59:00;;;;;;;3.62;1.48;;;;;;;30.96;23.72;99186.88;7655671;32;37790;-81
2023/07/20 15:03:17;;;;;;;5.22;1.50;;;;;;;31.57;23.41;99185.91;7657500;32;39626;-82
2023/07/20 15:07:37;;;;;;;4.97;1.62;;;;;;;32.11;22.46;99178.47;7657383;32;39955;-82
2023/07/20 15:11:54;;;;;;;4.75;1.70;;;;;;;32.20;22.71;99187.13;7657362;32;38453;-83
2023/07/20 15:16:10;;;;;;;3.33;1.40;;;;;;;32.89;22.08;99187.28;7656749;32;37818;-82
2023/07/20 15:20:27;;;;;;;3.97;1.83;;;;;;;32.51;22.61;99176.44;7656931;32;39535;-81
2023/07/20 15:24:44;;;;;;;4.15;1.77;;;;;;;32.58;22.61;99169.81;7656162;32;39967;-81
2023/07/20 15:29:01;;;;;;;4.75;1.60;;;;;;;32.11;23.84;99172.84;7655682;32;38024;-79
2023/07/20 15:33:17;;;;;;;6.82;1.80;;;;;;;31.92;23.43;99171.56;7651761;32;38470;-82
2023/07/20 15:37:36;;;;;;;5.30;1.87;;;;;;;31.42;22.99;99176.84;7653952;32;39903;-81
2023/07/20 15:41:53;;;;;;;4.12;1.62;;;;;;;31.87;22.41;99174.88;7643377;32;40034;-83
2023/07/20 15:46:48;;;;;;;3.25;1.50;;;;;;;31.61;22.47;99169.72;7641078;32;38220;-84
2023/07/20 15:51:05;;;;;;;5.90;1.77;;;;;;;31.81;22.77;99178.22;7638384;32;37201;-81
2023/07/20 15:55:22;;;;;;;2.22;1.48;;;;;;;31.85;22.40;99188.62;7638061;32;40024;-83
2023/07/20 15:59:39;;;;;;;2.85;1.65;;;;;;;32.43;22.12;99182.66;7644693;32;40295;-83
2023/07/20 16:03:57;;;;;;;3.35;1.62;;;;;;;32.79;22.26;99182.69;7650372;32;38574;-83
2023/07/20 16:08:16;;;;;;;6.55;1.50;;;;;;;32.87;22.25;99192.56;7648283;32;37138;-81
2023/07/20 16:12:32;;;;;;;2.00;1.40;;;;;;;33.05;22.25;99188.53;7647569;32;39363;-80
2023/07/20 16:16:49;;;;;;;4.22;1.67;;;;;;;32.59;22.40;99190.38;7650707;32;40709;-82
2023/07/20 16:21:06;;;;;;;6.65;1.80;;;;;;;32.43;22.30;99199.59;7648866;32;36452;-83
2023/07/20 16:25:22;;;;;;;2.37;1.33;;;;;;;32.32;22.46;99194.16;7649617;32;37061;-84
2023/07/20 16:29:39;;;;;;;2.35;1.33;;;;;;;32.09;22.46;99192.22;7649347;32;40170;-83
2023/07/20 16:33:58;;;;;;;3.47;1.50;;;;;;;32.03;22.99;99194.72;7636352;32;40819;-83
2023/07/20 16:38:17;;;;;;;2.50;1.58;;;;;;;32.15;23.05;99194.09;7640395;32;37210;-82
2023/07/20 16:42:33;;;;;;;1.87;1.42;;;;;;;32.22;23.40;99198.78;7642999;32;37021;-82
2023/07/20 16:46:53;;;;;;;7.07;1.52;;;;;;;32.46;23.30;99199.50;7659728;32;39518;-83
2023/07/20 16:51:11;;;;;;;3.12;1.55;;;;;;;32.53;23.00;99193.72;7659804;32;40766;-82
2023/07/20 16:55:28;;;;;;;7.72;1.60;;;;;;;31.93;23.37;99198.53;7658954;32;38491;-83
2023/07/20 16:59:44;;;;;;;3.53;1.50;;;;;;;32.23;23.00;99200.37;7654499;32;37062;-82
2023/07/20 17:04:01;;;;;;;3.62;1.65;;;;;;;32.09;23.89;99209.13;7652948;32;39828;-81
2023/07/20 17:08:17;;;;;;;6.60;1.75;;;;;;;31.91;24.16;99209.41;7650133;32;40536;-82
2023/07/20 17:12:38;;;;;;;4.62;1.60;;;;;;;32.08;23.53;99208.34;7648284;32;37595;-83
2023/07/20 17:16:55;;;;;;;3.00;1.40;;;;;;;31.91;24.27;99207.41;7651483;32;37236;-83
2023/07/20 17:21:13;;;;;;;5.35;1.65;;;;;;;31.80;23.89;99210.41;7650775;32;40131;-84
2023/07/20 17:25:30;;;;;;;3.80;1.70;;;;;;;31.62;24.56;99221.22;7653281;32;39986;-84
2023/07/20 17:29:47;;;;;;;2.95;1.50;;;;;;;31.55;24.82;99216.50;7657801;32;37831;-75
2023/07/20 17:34:04;;;;;;;3.85;1.83;;;;;;;31.47;25.67;99226.28;7659005;32;37891;-75
2023/07/20 17:38:23;;;;;;;8.57;1.62;;;;;;;31.04;26.03;99238.22;7655266;32;40199;-76
2023/07/20 17:42:43;;;;;;;6.60;1.62;;;;;;;31.04;25.56;99241.81;7669827;32;39206;-76
2023/07/20 17:47:02;;;;;;;7.25;2.10;;;;;;;30.55;27.04;99246.91;7685788;32;36370;-78
2023/07/20 17:51:21;;;;;;;7.53;2.05;;;;;;;30.54;27.08;99244.50;7685699;32;36508;-77
2023/07/20 17:55:38;;;;;;;9.52;1.90;;;;;;;30.15;27.00;99252.16;7668826;32;39346;-77
2023/07/20 17:59:55;;;;;;;6.68;1.92;;;;;;;30.05;27.41;99259.47;7658710;32;39891;-76
2023/07/20 18:04:15;;;;;;;4.28;2.20;;;;;;;29.90;27.86;99267.25;7658891;32;37179;-75
2023/07/20 18:08:32;;;;;;;6.50;2.28;;;;;;;29.83;28.14;99263.72;7655872;32;37702;-77
2023/07/20 18:12:49;;;;;;;11.20;2.37;;;;;;;29.66;28.15;99262.63;7654291;32;39457;-76
2023/07/20 18:17:05;;;;;;;4.07;1.90;;;;;;;29.56;28.74;99264.31;7655067;32;40051;-78
2023/07/20 18:21:22;;;;;;;4.18;2.30;;;;;;;29.36;28.88;99256.44;7647731;32;38050;-75
2023/07/20 18:25:42;;;;;;;5.85;2.10;;;;;;;29.13;29.29;99268.22;7644926;32;36857;-75
2023/07/20 18:30:01;;;;;;;5.20;2.30;;;;;;;28.88;29.40;99267.56;7637645;32;40138;-75
2023/07/20 18:34:18;;;;;;;15.25;2.30;;;;;;;28.76;29.48;99269.63;7648612;32;41223;-75
2023/07/20 18:38:35;;;;;;;5.75;1.95;;;;;;;28.55;29.89;99273.31;7649880;32;37902;-87
2023/07/20 18:42:51;;;;;;;3.85;1.92;;;;;;;28.34;29.79;99273.34;7647959;32;37389;-85
2023/07/20 18:47:09;;;;;;;2.90;1.75;;;;;;;28.17;30.14;99280.62;7649521;32;40003;-85
2023/07/20 18:51:25;;;;;;;4.80;1.83;;;;;;;27.93;30.52;99287.88;7647425;32;39681;-86
2023/07/20 18:55:42;;;;;;;8.45;2.00;;;;;;;27.94;30.58;99290.28;7649662;32;38488;-86
2023/07/20 18:59:58;;;;;;;5.70;1.90;;;;;;;27.87;30.92;99298.63;7649751;32;37178;-86
2023/07/20 19:04:14;;;;;;;3.45;1.83;;;;;;;27.80;31.04;99295.84;7648140;32;39982;-87
2023/07/20 19:08:31;;;;;;;3.90;1.75;;;;;;;27.46;31.61;99304.62;7649124;32;39463;-87
2023/07/20 19:12:47;;;;;;;5.47;1.80;;;;;;;27.31;31.94;99310.19;7657002;32;38755;-86
2023/07/20 19:17:05;;;;;;;5.68;2.40;;;;;;;27.09;32.47;99323.28;7656159;32;36772;-86
2023/07/20 19:21:21;;;;;;;6.60;1.80;;;;;;;27.06;32.35;99326.91;7657428;32;40196;-84
2023/07/20 19:25:38;;;;;;;6.12;1.98;;;;;;;26.70;33.41;99337.13;7656944;32;40276;-85
2023/07/20 19:29:54;;;;;;;4.72;1.70;;;;;;;26.70;33.16;99337.13;7657266;32;37850;-88
2023/07/20 19:34:11;;;;;;;7.05;2.25;;;;;;;26.53;33.55;99350.59;7656577;32;37871;-86
2023/07/20 19:38:27;;;;;;;8.02;2.12;;;;;;;26.21;34.69;99361.56;7657123;32;40030;-85
2023/07/20 19:42:49;;;;;;;5.93;2.00;;;;;;;26.23;34.72;99371.19;7656831;32;39616;-87
2023/07/20 19:47:06;;;;;;;5.97;2.37;;;;;;;26.15;35.30;99379.91;7656659;32;38718;-87
2023/07/20 19:51:22;;;;;;;6.43;2.17;;;;;;;26.17;36.09;99377.50;7647743;32;37058;-88
2023/07/20 19:55:39;;;;;;;7.03;2.28;;;;;;;25.94;37.27;99380.47;7646800;32;39353;-88
2023/07/20 19:59:57;;;;;;;4.87;1.95;;;;;;;26.00;37.51;99379.75;7645471;32;39861;-88
2023/07/20 20:04:15;;;;;;;3.08;1.95;;;;;;;25.94;37.61;99383.25;7644951;32;38698;-86
2023/07/20 20:08:34;;;;;;;11.90;2.30;;;;;;;25.78;37.42;99384.31;7640922;32;36647;-86
2023/07/20 20:12:50;;;;;;;4.62;2.10;;;;;;;25.76;37.27;99375.53;7641411;32;39370;-87